Time;durP1;ratioP1;P1;durP2;ratioP2;P2;SDS_P1;SDS_P2;PMS_P1;PMS_P2;Temp;Humidity;BMP_temperature;BMP_pressure;BME280_temperature;BME280_humidity;BME280_pressure;Samples;Min_cycle;Max_cycle;Signal;HPM_P1;HPM_P2
2022/05/22 00:02:14;;;;;;;8.05;3.38;;;;;;;;;;4976655;28;20111;-76
2022/05/22 00:04:41;;;;;;;7.68;2.08;;;;;;;;;;4977662;28;20070;-78
2022/05/22 00:07:09;;;;;;;4.15;2.30;;;;;;;;;;4976411;28;20506;-78
2022/05/22 00:09:37;;;;;;;6.20;2.75;;;;;;;;;;4977943;28;20045;-76
2022/05/22 00:12:05;;;;;;;6.75;2.47;;;;;;;;;;4976278;28;20099;-76
2022/05/22 00:14:32;;;;;;;8.43;3.28;;;;;;;;;;4976196;28;20027;-78
2022/05/22 00:17:00;;;;;;;8.55;2.90;;;;;;;;;;4976074;28;20027;-77
2022/05/22 00:19:28;;;;;;;7.47;2.83;;;;;;;;;;4976070;28;20117;-77
2022/05/22 00:21:56;;;;;;;8.77;2.95;;;;;;;;;;4976132;28;20023;-78
2022/05/22 00:24:24;;;;;;;8.05;2.95;;;;;;;;;;4976179;28;20058;-77
2022/05/22 00:26:52;;;;;;;7.10;3.03;;;;;;;;;;4977425;28;20023;-77
2022/05/22 00:29:19;;;;;;;5.43;2.60;;;;;;;;;;4975894;28;20026;-76
2022/05/22 00:31:47;;;;;;;6.68;2.50;;;;;;;;;;4975848;28;20057;-76
2022/05/22 00:34:14;;;;;;;7.43;2.83;;;;;;;;;;4977501;28;20027;-78
2022/05/22 00:36:41;;;;;;;8.02;2.72;;;;;;;;;;4977278;28;20022;-78
2022/05/22 00:39:09;;;;;;;7.70;2.55;;;;;;;;;;4975846;28;20026;-78
2022/05/22 00:41:36;;;;;;;11.32;3.03;;;;;;;;;;4976311;28;20490;-78
2022/05/22 00:44:04;;;;;;;5.95;2.20;;;;;;;;;;4977091;28;20034;-77
2022/05/22 00:46:33;;;;;;;6.72;2.33;;;;;;;;;;4975629;28;20026;-79
2022/05/22 00:49:03;;;;;;;11.35;3.33;;;;;;;;;;4975453;28;20031;-77
2022/05/22 00:51:39;;;;;;;8.07;3.20;;;;;;;;;;4975752;28;20030;-77
2022/05/22 00:54:13;;;;;;;7.32;2.78;;;;;;;;;;4975793;28;20027;-79
2022/05/22 00:57:01;;;;;;;7.72;2.45;;;;;;;;;;4977128;28;20027;-76
2022/05/22 00:59:31;;;;;;;8.52;2.85;;;;;;;;;;4975393;28;20522;-75
2022/05/22 01:01:59;;;;;;;9.13;4.63;;;;;;;;;;4976150;28;20093;-75
2022/05/22 01:04:28;;;;;;;8.20;6.00;;;;;;;;;;4974934;28;20081;-75
2022/05/22 01:06:55;;;;;;;7.85;4.25;;;;;;;;;;4975416;28;20105;-75
2022/05/22 01:09:22;;;;;;;9.27;3.90;;;;;;;;;;4976595;28;20022;-75
2022/05/22 01:11:55;;;;;;;7.82;4.25;;;;;;;;;;4976463;28;20035;-75
2022/05/22 01:14:23;;;;;;;7.85;4.00;;;;;;;;;;4975216;28;20026;-75
2022/05/22 01:16:51;;;;;;;6.10;3.50;;;;;;;;;;4976418;28;20078;-74
2022/05/22 01:19:21;;;;;;;6.63;3.92;;;;;;;;;;4976395;28;20084;-74
2022/05/22 01:22:08;;;;;;;9.68;4.07;;;;;;;;;;4976551;28;20046;-75
2022/05/22 01:24:35;;;;;;;7.68;3.83;;;;;;;;;;4976618;28;20026;-75
2022/05/22 01:27:04;;;;;;;5.85;3.30;;;;;;;;;;4976361;28;20035;-75
2022/05/22 01:29:31;;;;;;;6.45;3.35;;;;;;;;;;4976197;28;20112;-75
2022/05/22 01:31:59;;;;;;;5.63;2.65;;;;;;;;;;4976333;28;20027;-75
2022/05/22 01:34:26;;;;;;;8.65;3.42;;;;;;;;;;4976046;28;20031;-73
2022/05/22 01:36:53;;;;;;;8.65;3.38;;;;;;;;;;4976362;28;20030;-72
2022/05/22 01:39:20;;;;;;;7.40;3.63;;;;;;;;;;4974716;28;20520;-72
2022/05/22 01:41:47;;;;;;;4.53;1.85;;;;;;;;;;4976055;28;20030;-73
2022/05/22 01:44:14;;;;;;;6.97;2.20;;;;;;;;;;4975780;28;20031;-73
2022/05/22 01:46:41;;;;;;;5.40;2.13;;;;;;;;;;4976243;28;20023;-72
2022/05/22 01:49:09;;;;;;;5.97;1.90;;;;;;;;;;4976117;28;20027;-71
2022/05/22 01:51:38;;;;;;;6.55;2.47;;;;;;;;;;4975850;28;20031;-71
2022/05/22 01:54:06;;;;;;;8.30;1.95;;;;;;;;;;4974581;28;20038;-71
2022/05/22 01:56:34;;;;;;;8.95;2.30;;;;;;;;;;4975702;28;20023;-71
2022/05/22 01:59:02;;;;;;;7.68;1.90;;;;;;;;;;4975953;28;20106;-71
2022/05/22 02:01:29;;;;;;;5.05;1.90;;;;;;;;;;4974372;28;20095;-72
2022/05/22 02:03:56;;;;;;;6.47;1.90;;;;;;;;;;4975335;28;20035;-72
2022/05/22 02:06:23;;;;;;;4.13;1.98;;;;;;;;;;4975599;28;20034;-72
2022/05/22 02:08:50;;;;;;;4.72;1.88;;;;;;;;;;4975520;28;20046;-72
2022/05/22 02:11:17;;;;;;;5.38;2.05;;;;;;;;;;4975458;28;20101;-72
2022/05/22 02:13:45;;;;;;;5.22;2.58;;;;;;;;;;4974550;28;20023;-71
2022/05/22 02:16:12;;;;;;;4.00;1.48;;;;;;;;;;4975343;28;20499;-72
2022/05/22 02:18:40;;;;;;;4.93;1.60;;;;;;;;;;4975430;28;20026;-70
2022/05/22 02:21:07;;;;;;;3.72;1.42;;;;;;;;;;4975268;28;20041;-70
2022/05/22 02:23:35;;;;;;;6.82;2.35;;;;;;;;;;4975471;28;20391;-70
2022/05/22 02:26:03;;;;;;;6.00;2.20;;;;;;;;;;4973803;28;20114;-70
2022/05/22 02:28:31;;;;;;;5.40;1.92;;;;;;;;;;4975158;28;20037;-70
2022/05/22 02:31:02;;;;;;;5.93;2.25;;;;;;;;;;4973669;28;20038;-70
2022/05/22 02:33:29;;;;;;;4.65;1.80;;;;;;;;;;4975062;28;20053;-70
2022/05/22 02:35:57;;;;;;;5.63;2.15;;;;;;;;;;4974929;28;20027;-72
2022/05/22 02:38:24;;;;;;;3.80;2.00;;;;;;;;;;4974930;28;20038;-72
2022/05/22 02:40:52;;;;;;;7.63;2.75;;;;;;;;;;4973726;28;20022;-72
2022/05/22 02:43:19;;;;;;;5.72;1.98;;;;;;;;;;4974862;28;20019;-71
2022/05/22 02:45:46;;;;;;;4.75;1.90;;;;;;;;;;4974577;28;20384;-71
2022/05/22 02:48:14;;;;;;;6.78;2.03;;;;;;;;;;4973305;28;20026;-71
2022/05/22 02:50:41;;;;;;;6.22;2.60;;;;;;;;;;4974910;28;20510;-71
2022/05/22 02:53:09;;;;;;;7.40;2.15;;;;;;;;;;4973412;28;20054;-70
2022/05/22 02:55:38;;;;;;;6.25;2.53;;;;;;;;;;4974597;28;20042;-70
2022/05/22 02:58:05;;;;;;;5.70;2.30;;;;;;;;;;4973389;28;20023;-71
2022/05/22 03:00:32;;;;;;;5.97;2.42;;;;;;;;;;4974912;28;20077;-71
2022/05/22 03:02:59;;;;;;;6.55;3.65;;;;;;;;;;4973339;28;20058;-71
2022/05/22 03:06:37;;;;;;;5.53;3.10;;;;;;;;;;4974416;28;20051;-72
2022/05/22 03:08:16;;;;;;;6.68;2.60;;;;;;;;;;4974296;28;20499;-72
2022/05/22 03:10:44;;;;;;;6.65;3.00;;;;;;;;;;4973132;28;20499;-72
2022/05/22 03:13:12;;;;;;;3.90;2.10;;;;;;;;;;4974411;28;20019;-71
2022/05/22 03:15:39;;;;;;;4.20;1.70;;;;;;;;;;4974533;28;20157;-72
2022/05/22 03:18:07;;;;;;;3.63;1.70;;;;;;;;;;4974284;28;20026;-70
2022/05/22 03:20:34;;;;;;;5.82;1.58;;;;;;;;;;4974364;28;20502;-71
2022/05/22 03:23:01;;;;;;;3.47;0.93;;;;;;;;;;4973012;28;20030;-71
2022/05/22 03:25:28;;;;;;;4.18;1.30;;;;;;;;;;4972804;28;20365;-70
2022/05/22 03:27:55;;;;;;;3.92;0.95;;;;;;;;;;4974224;28;20050;-72
2022/05/22 03:30:23;;;;;;;2.28;1.17;;;;;;;;;;4972880;28;20027;-70
2022/05/22 03:32:50;;;;;;;3.22;1.00;;;;;;;;;;4974058;28;20102;-70
2022/05/22 03:35:17;;;;;;;2.13;1.00;;;;;;;;;;4974267;28;20045;-70
2022/05/22 03:37:44;;;;;;;2.38;0.68;;;;;;;;;;4974006;28;20478;-71
2022/05/22 03:40:13;;;;;;;4.63;0.95;;;;;;;;;;4974107;28;20062;-70
2022/05/22 03:42:40;;;;;;;4.00;0.70;;;;;;;;;;4972752;28;20031;-70
2022/05/22 03:45:08;;;;;;;2.63;0.55;;;;;;;;;;4972780;28;20035;-70
2022/05/22 03:47:35;;;;;;;1.65;0.47;;;;;;;;;;4973930;28;20034;-71
2022/05/22 03:50:04;;;;;;;4.18;0.55;;;;;;;;;;4973958;28;20368;-71
2022/05/22 03:52:35;;;;;;;1.88;0.50;;;;;;;;;;4974242;28;20151;-71
2022/05/22 03:55:01;;;;;;;;;;;;;;;;;;4973123;28;20026;-71
2022/05/22 03:57:29;;;;;;;3.67;0.60;;;;;;;;;;4972635;28;19948;-72
2022/05/22 03:59:56;;;;;;;3.53;0.50;;;;;;;;;;4974279;28;20050;-71
2022/05/22 04:02:23;;;;;;;1.98;0.47;;;;;;;;;;4973916;28;20027;-71
2022/05/22 04:04:51;;;;;;;1.73;0.30;;;;;;;;;;4973532;28;20507;-71
2022/05/22 04:07:18;;;;;;;2.78;0.50;;;;;;;;;;4972622;28;20023;-71
2022/05/22 04:09:45;;;;;;;2.25;0.50;;;;;;;;;;4973781;28;20026;-71
2022/05/22 04:12:13;;;;;;;2.08;0.50;;;;;;;;;;4974123;28;20435;-71
2022/05/22 04:14:40;;;;;;;2.47;0.30;;;;;;;;;;4973809;28;20384;-71
2022/05/22 04:17:07;;;;;;;1.70;0.85;;;;;;;;;;4973840;28;20030;-71
2022/05/22 04:19:36;;;;;;;2.05;0.40;;;;;;;;;;4973651;28;20435;-71
2022/05/22 04:22:03;;;;;;;2.70;0.32;;;;;;;;;;4973938;28;20023;-72
2022/05/22 04:27:16;;;;;;;3.78;0.80;;;;;;;;;;4973972;28;20078;-71
2022/05/22 04:29:43;;;;;;;1.25;0.32;;;;;;;;;;4973658;28;20467;-72
2022/05/22 04:32:10;;;;;;;2.42;0.60;;;;;;;;;;4973557;28;20395;-71
2022/05/22 04:34:37;;;;;;;2.05;0.30;;;;;;;;;;4973671;28;20034;-72
2022/05/22 04:37:05;;;;;;;4.60;0.65;;;;;;;;;;4975710;28;20111;-72
2022/05/22 04:39:32;;;;;;;3.80;0.50;;;;;;;;;;4975762;28;20441;-71
2022/05/22 04:41:59;;;;;;;1.70;0.50;;;;;;;;;;4976999;28;20031;-73
2022/05/22 04:44:27;;;;;;;2.40;0.50;;;;;;;;;;4976768;28;20030;-72
2022/05/22 04:46:54;;;;;;;3.00;0.50;;;;;;;;;;4977164;28;20045;-72
2022/05/22 04:49:22;;;;;;;3.25;0.50;;;;;;;;;;4976866;28;20109;-72
2022/05/22 04:51:49;;;;;;;4.18;0.60;;;;;;;;;;4977126;28;20383;-71
2022/05/22 04:54:16;;;;;;;1.67;0.20;;;;;;;;;;4976827;28;20023;-71
2022/05/22 04:56:44;;;;;;;2.25;0.30;;;;;;;;;;4975527;28;20062;-71
2022/05/22 04:59:11;;;;;;;1.75;0.47;;;;;;;;;;4976551;28;20025;-71
2022/05/22 05:01:38;;;;;;;2.42;0.52;;;;;;;;;;4976944;28;20023;-71
2022/05/22 05:04:06;;;;;;;3.25;0.28;;;;;;;;;;4975050;28;20058;-72
2022/05/22 05:06:33;;;;;;;1.13;0.20;;;;;;;;;;4975273;28;20455;-71
2022/05/22 05:09:00;;;;;;;3.38;0.60;;;;;;;;;;4976370;28;20089;-72
2022/05/22 05:11:27;;;;;;;1.05;0.20;;;;;;;;;;4976302;28;20498;-71
2022/05/22 05:13:54;;;;;;;3.55;0.40;;;;;;;;;;4976555;28;20026;-71
2022/05/22 05:16:22;;;;;;;1.42;0.35;;;;;;;;;;4976608;28;20031;-71
2022/05/22 05:18:49;;;;;;;2.17;0.50;;;;;;;;;;4975121;28;20407;-70
2022/05/22 05:21:18;;;;;;;1.15;0.30;;;;;;;;;;4976481;28;20043;-70
2022/05/22 05:23:45;;;;;;;1.02;0.20;;;;;;;;;;4976483;28;20033;-70
2022/05/22 05:26:12;;;;;;;1.02;0.20;;;;;;;;;;4976412;28;20027;-71
2022/05/22 05:28:39;;;;;;;1.45;0.20;;;;;;;;;;4976278;28;20403;-70
2022/05/22 05:31:06;;;;;;;2.80;0.65;;;;;;;;;;4974783;28;20114;-71
2022/05/22 05:33:34;;;;;;;1.90;0.30;;;;;;;;;;4976108;28;20067;-71
2022/05/22 05:36:01;;;;;;;1.10;0.30;;;;;;;;;;4976139;28;20395;-71
2022/05/22 05:38:30;;;;;;;1.88;0.40;;;;;;;;;;4975947;28;20376;-71
2022/05/22 05:40:57;;;;;;;1.48;0.52;;;;;;;;;;4976169;28;20102;-71
2022/05/22 05:43:24;;;;;;;0.90;0.30;;;;;;;;;;4975930;28;20034;-70
2022/05/22 05:45:51;;;;;;;2.47;0.30;;;;;;;;;;4976091;28;20026;-69
2022/05/22 05:48:18;;;;;;;2.17;0.63;;;;;;;;;;4975730;28;20163;-69
2022/05/22 05:50:46;;;;;;;1.80;0.40;;;;;;;;;;4975815;28;20038;-70
2022/05/22 05:53:14;;;;;;;3.67;0.75;;;;;;;;;;4974497;28;20077;-70
2022/05/22 05:55:41;;;;;;;1.55;0.52;;;;;;;;;;4975585;28;20443;-69
2022/05/22 05:58:09;;;;;;;1.83;0.40;;;;;;;;;;4974436;28;20078;-70
2022/05/22 06:00:36;;;;;;;2.25;0.70;;;;;;;;;;4975531;28;20078;-70
2022/05/22 06:03:03;;;;;;;1.95;0.40;;;;;;;;;;4975513;28;20514;-70
2022/05/22 06:05:30;;;;;;;1.67;0.50;;;;;;;;;;4975241;28;20062;-70
2022/05/22 06:07:57;;;;;;;1.38;0.40;;;;;;;;;;4974183;28;20448;-70
2022/05/22 06:10:24;;;;;;;2.45;0.65;;;;;;;;;;4975454;28;20033;-70
2022/05/22 06:12:51;;;;;;;1.50;0.47;;;;;;;;;;4975353;28;20023;-70
2022/05/22 06:15:19;;;;;;;2.28;0.40;;;;;;;;;;4975584;28;20360;-70
2022/05/22 06:17:47;;;;;;;2.53;0.40;;;;;;;;;;4975270;28;20023;-71
2022/05/22 06:20:17;;;;;;;2.50;0.30;;;;;;;;;;4975344;28;20030;-70
2022/05/22 06:22:44;;;;;;;2.90;0.77;;;;;;;;;;4975186;28;20034;-71
2022/05/22 06:25:13;;;;;;;2.08;0.60;;;;;;;;;;4973903;28;20038;-70
2022/05/22 06:27:41;;;;;;;1.75;0.50;;;;;;;;;;4975408;28;20106;-70
2022/05/22 06:30:08;;;;;;;2.47;0.52;;;;;;;;;;4975106;28;20372;-70
2022/05/22 06:32:35;;;;;;;2.25;0.45;;;;;;;;;;4975157;28;20491;-70
2022/05/22 06:35:03;;;;;;;2.45;0.40;;;;;;;;;;4975025;28;20030;-70
2022/05/22 06:37:30;;;;;;;2.42;0.47;;;;;;;;;;4973719;28;20048;-71
2022/05/22 06:39:57;;;;;;;1.83;0.43;;;;;;;;;;4975275;28;20023;-71
2022/05/22 06:42:28;;;;;;;1.58;0.70;;;;;;;;;;4974897;28;20428;-71
2022/05/22 06:44:57;;;;;;;4.85;0.47;;;;;;;;;;4975078;28;20019;-70
2022/05/22 06:47:25;;;;;;;3.17;0.47;;;;;;;;;;4974894;28;20042;-70
2022/05/22 06:49:53;;;;;;;2.83;0.70;;;;;;;;;;4974862;28;20097;-71
2022/05/22 06:52:20;;;;;;;2.17;0.50;;;;;;;;;;4974735;28;20135;-70
2022/05/22 06:54:47;;;;;;;2.63;0.30;;;;;;;;;;4973492;28;20027;-70
2022/05/22 06:57:16;;;;;;;2.33;0.63;;;;;;;;;;4974814;28;20030;-70
2022/05/22 06:59:44;;;;;;;3.67;0.45;;;;;;;;;;4973859;28;20391;-70
2022/05/22 07:02:11;;;;;;;3.38;0.47;;;;;;;;;;4974812;28;20027;-71
2022/05/22 07:04:38;;;;;;;2.05;0.43;;;;;;;;;;4974405;28;20062;-71
2022/05/22 07:07:06;;;;;;;2.72;0.28;;;;;;;;;;4973187;28;20062;-71
2022/05/22 07:09:33;;;;;;;1.73;0.40;;;;;;;;;;4973119;28;20080;-71
2022/05/22 07:12:00;;;;;;;3.45;0.40;;;;;;;;;;4974308;28;20041;-70
2022/05/22 07:14:28;;;;;;;0.73;0.25;;;;;;;;;;4974489;28;20026;-72
2022/05/22 07:16:55;;;;;;;3.22;0.75;;;;;;;;;;4973217;28;20027;-72
2022/05/22 07:19:23;;;;;;;1.90;0.57;;;;;;;;;;4974402;28;20110;-72
2022/05/22 07:21:50;;;;;;;2.28;0.40;;;;;;;;;;4973121;28;20035;-71
2022/05/22 07:24:17;;;;;;;2.75;0.70;;;;;;;;;;4974352;28;20023;-71
2022/05/22 07:26:44;;;;;;;5.03;1.15;;;;;;;;;;4973145;28;20034;-71
2022/05/22 07:29:12;;;;;;;4.78;0.77;;;;;;;;;;4973054;28;20027;-72
2022/05/22 07:31:40;;;;;;;3.47;0.80;;;;;;;;;;4974157;28;20023;-71
2022/05/22 07:34:08;;;;;;;2.70;0.90;;;;;;;;;;4974170;28;20504;-71
2022/05/22 07:36:35;;;;;;;4.60;1.05;;;;;;;;;;4974115;28;20030;-71
2022/05/22 07:39:02;;;;;;;2.63;0.90;;;;;;;;;;4974072;28;20029;-71
2022/05/22 07:41:30;;;;;;;1.88;0.70;;;;;;;;;;4974045;28;20054;-71
2022/05/22 07:43:58;;;;;;;3.78;1.10;;;;;;;;;;4974034;28;20110;-71
2022/05/22 07:46:26;;;;;;;3.80;1.10;;;;;;;;;;4974177;28;20019;-72
2022/05/22 07:48:53;;;;;;;3.75;1.33;;;;;;;;;;4973780;28;20120;-71
2022/05/22 07:51:20;;;;;;;6.65;1.50;;;;;;;;;;4973697;28;20088;-71
2022/05/22 07:53:47;;;;;;;4.93;0.95;;;;;;;;;;4972612;28;20042;-71
2022/05/22 07:56:15;;;;;;;6.15;1.17;;;;;;;;;;4973867;28;20041;-70
2022/05/22 07:58:42;;;;;;;6.28;1.90;;;;;;;;;;4974131;28;20018;-71
2022/05/22 08:01:09;;;;;;;4.97;1.52;;;;;;;;;;4974107;28;20027;-71
2022/05/22 08:03:36;;;;;;;4.18;1.30;;;;;;;;;;4972640;28;20033;-71
2022/05/22 08:06:03;;;;;;;6.22;1.80;;;;;;;;;;4973626;28;20046;-71
2022/05/22 08:08:31;;;;;;;4.68;1.63;;;;;;;;;;4973871;28;20031;-72
2022/05/22 08:10:59;;;;;;;4.47;1.10;;;;;;;;;;4973987;28;20026;-71
2022/05/22 08:13:26;;;;;;;6.50;1.35;;;;;;;;;;4976298;28;20023;-71
2022/05/22 08:15:54;;;;;;;3.03;0.68;;;;;;;;;;4977689;28;20015;-71
2022/05/22 08:18:21;;;;;;;3.50;0.63;;;;;;;;;;4977514;28;20027;-72
2022/05/22 08:20:49;;;;;;;3.30;0.70;;;;;;;;;;4976253;28;20110;-72
2022/05/22 08:23:18;;;;;;;6.93;1.48;;;;;;;;;;4977448;28;20026;-70
2022/05/22 08:25:45;;;;;;;2.00;0.82;;;;;;;;;;4977419;28;20022;-70
2022/05/22 08:28:12;;;;;;;6.53;1.38;;;;;;;;;;4977408;28;20047;-71
2022/05/22 08:30:40;;;;;;;3.63;1.30;;;;;;;;;;4977359;28;20026;-73
2022/05/22 08:33:07;;;;;;;6.88;1.42;;;;;;;;;;4977418;28;20089;-73
2022/05/22 08:35:36;;;;;;;4.22;1.45;;;;;;;;;;4977442;28;20015;-73
2022/05/22 08:38:04;;;;;;;8.82;1.80;;;;;;;;;;4975894;28;20076;-73
2022/05/22 08:40:55;;;;;;;7.68;1.63;;;;;;;;;;4977363;28;20026;-74
2022/05/22 08:43:34;;;;;;;9.93;2.47;;;;;;;;;;4977229;28;20047;-75
2022/05/22 08:46:27;;;;;;;8.93;2.10;;;;;;;;;;4977050;28;20151;-75
2022/05/22 08:48:57;;;;;;;9.00;2.72;;;;;;;;;;4975262;28;20522;-75
2022/05/22 08:51:32;;;;;;;9.48;3.00;;;;;;;;;;4976933;28;20038;-73
2022/05/22 08:54:07;;;;;;;6.82;1.67;;;;;;;;;;4977150;28;20023;-73
2022/05/22 08:59:32;;;;;;;7.80;2.03;;;;;;;;;;4977123;28;20045;-73
2022/05/22 09:02:04;;;;;;;3.47;1.60;;;;;;;;;;4976847;28;20091;-74
2022/05/22 09:04:33;;;;;;;8.82;2.17;;;;;;;;;;4976413;28;20047;-73
2022/05/22 09:07:07;;;;;;;5.72;1.27;;;;;;;;;;4976579;28;20031;-73
2022/05/22 09:09:36;;;;;;;3.83;0.95;;;;;;;;;;4977044;28;20387;-74
2022/05/22 09:12:13;;;;;;;6.40;1.58;;;;;;;;;;4976381;28;20057;-74
2022/05/22 09:14:47;;;;;;;7.10;1.33;;;;;;;;;;4975120;28;20154;-75
2022/05/22 09:17:25;;;;;;;6.15;1.90;;;;;;;;;;4976531;28;20019;-75
2022/05/22 09:19:58;;;;;;;5.38;2.08;;;;;;;;;;4976340;28;20062;-74
2022/05/22 09:22:31;;;;;;;4.25;2.22;;;;;;;;;;4975977;28;20031;-75
2022/05/22 09:25:10;;;;;;;5.32;2.38;;;;;;;;;;4976604;28;20027;-74
2022/05/22 09:27:55;;;;;;;4.13;2.70;;;;;;;;;;4976308;28;20031;-73
2022/05/22 09:30:28;;;;;;;4.20;1.27;;;;;;;;;;4976457;28;20030;-73
2022/05/22 09:33:05;;;;;;;3.15;1.42;;;;;;;;;;4975162;28;20023;-73
2022/05/22 09:35:35;;;;;;;3.83;1.55;;;;;;;;;;4976321;28;20387;-73
2022/05/22 09:38:02;;;;;;;5.18;1.52;;;;;;;;;;4976121;28;20027;-73
2022/05/22 09:40:52;;;;;;;4.00;1.77;;;;;;;;;;4976077;28;20027;-74
2022/05/22 09:43:35;;;;;;;4.13;1.73;;;;;;;;;;4976345;28;20023;-73
2022/05/22 09:46:05;;;;;;;6.45;2.35;;;;;;;;;;4974782;28;20343;-74
2022/05/22 09:48:32;;;;;;;4.82;2.03;;;;;;;;;;4974721;28;20031;-74
2022/05/22 09:51:17;;;;;;;3.22;1.45;;;;;;;;;;4975897;28;20431;-74
2022/05/22 09:54:13;;;;;;;2.88;1.48;;;;;;;;;;4974501;28;20471;-73
2022/05/22 09:56:48;;;;;;;4.68;2.17;;;;;;;;;;4967429;28;20496;-73
2022/05/22 09:59:33;;;;;;;4.35;2.00;;;;;;;;;;4975966;28;20102;-72
2022/05/22 10:02:03;;;;;;;3.72;2.00;;;;;;;;;;4976000;28;20034;-73
2022/05/22 10:04:51;;;;;;;5.57;2.53;;;;;;;;;;4975600;28;20058;-73
2022/05/22 10:07:37;;;;;;;5.07;2.58;;;;;;;;;;4974608;28;20039;-73
2022/05/22 10:10:24;;;;;;;7.22;3.28;;;;;;;;;;4975498;28;20038;-74
2022/05/22 10:13:03;;;;;;;3.47;1.80;;;;;;;;;;4975326;28;20025;-74
2022/05/22 10:15:30;;;;;;;5.82;2.20;;;;;;;;;;4975543;28;20117;-73
2022/05/22 10:18:15;;;;;;;7.28;2.20;;;;;;;;;;4975379;28;20026;-76
2022/05/22 10:21:01;;;;;;;5.63;2.35;;;;;;;;;;4975301;28;20051;-73
2022/05/22 10:23:44;;;;;;;8.75;4.68;;;;;;;;;;4975504;28;20102;-75
2022/05/22 10:26:17;;;;;;;6.65;4.07;;;;;;;;;;4975524;28;20101;-76
2022/05/22 10:29:06;;;;;;;10.90;4.35;;;;;;;;;;4975213;28;20034;-77
2022/05/22 10:31:41;;;;;;;6.38;3.58;;;;;;;;;;4975138;28;20106;-76
2022/05/22 10:34:28;;;;;;;3.35;1.95;;;;;;;;;;4974401;28;20387;-76
2022/05/22 10:36:59;;;;;;;6.10;1.85;;;;;;;;;;4968102;28;20039;-76
2022/05/22 10:39:27;;;;;;;4.32;1.05;;;;;;;;;;4975187;28;20019;-76
2022/05/22 10:44:39;;;;;;;5.18;1.60;;;;;;;;;;4974949;28;20033;-77
2022/05/22 10:47:07;;;;;;;4.13;2.15;;;;;;;;;;4974771;28;20031;-77
2022/05/22 10:49:40;;;;;;;3.67;1.52;;;;;;;;;;4974832;28;20030;-77
2022/05/22 10:52:08;;;;;;;3.47;1.85;;;;;;;;;;4975000;28;20038;-77
2022/05/22 10:54:37;;;;;;;5.18;1.92;;;;;;;;;;4973723;28;20050;-77
2022/05/22 10:57:17;;;;;;;6.65;2.70;;;;;;;;;;4974891;28;20027;-76
2022/05/22 10:59:45;;;;;;;8.25;3.15;;;;;;;;;;4973437;28;20018;-77
2022/05/22 11:02:17;;;;;;;3.83;1.95;;;;;;;;;;4973675;28;20027;-77
2022/05/22 11:04:46;;;;;;;6.47;2.58;;;;;;;;;;4972904;28;20046;-76
2022/05/22 11:07:14;;;;;;;3.40;1.73;;;;;;;;;;4974550;28;20054;-76
2022/05/22 11:09:50;;;;;;;5.78;1.85;;;;;;;;;;4974710;28;20026;-76
2022/05/22 11:12:24;;;;;;;4.07;1.75;;;;;;;;;;4974683;28;20045;-76
2022/05/22 11:14:52;;;;;;;4.63;1.77;;;;;;;;;;4974400;28;20387;-76
2022/05/22 11:17:20;;;;;;;3.92;1.95;;;;;;;;;;4973080;28;20110;-76
2022/05/22 11:19:54;;;;;;;4.13;1.50;;;;;;;;;;4974360;28;20027;-77
2022/05/22 11:22:33;;;;;;;4.35;1.45;;;;;;;;;;4973028;28;20392;-77
2022/05/22 11:25:23;;;;;;;3.17;1.50;;;;;;;;;;4973157;28;20031;-78
2022/05/22 11:28:09;;;;;;;4.20;1.33;;;;;;;;;;4969149;28;20045;-78
2022/05/22 11:30:51;;;;;;;2.03;0.82;;;;;;;;;;4974158;28;20022;-77
2022/05/22 11:33:18;;;;;;;3.20;1.40;;;;;;;;;;4972927;28;20488;-77
2022/05/22 11:35:53;;;;;;;3.60;1.35;;;;;;;;;;4974171;28;20030;-77
2022/05/22 11:38:39;;;;;;;4.75;1.92;;;;;;;;;;4974402;28;20027;-78
2022/05/22 11:41:18;;;;;;;4.03;1.60;;;;;;;;;;4974351;28;20074;-77
2022/05/22 11:44:09;;;;;;;4.60;1.75;;;;;;;;;;4975844;28;20049;-77
2022/05/22 11:46:54;;;;;;;2.60;1.58;;;;;;;;;;4978223;28;20416;-79
2022/05/22 11:49:40;;;;;;;4.28;1.60;;;;;;;;;;4977170;28;20399;-77
2022/05/22 11:55:15;;;;;;;2.45;1.60;;;;;;;;;;4979355;28;20414;-78
2022/05/22 11:58:05;;;;;;;4.22;2.50;;;;;;;;;;4979230;28;20030;-77
2022/05/22 12:00:38;;;;;;;3.53;2.23;;;;;;;;;;4977744;28;20022;-77
2022/05/22 12:03:06;;;;;;;4.60;2.40;;;;;;;;;;4977696;28;20027;-77
2022/05/22 12:05:52;;;;;;;4.50;2.70;;;;;;;;;;4976994;28;20077;-75
2022/05/22 12:08:37;;;;;;;4.40;2.92;;;;;;;;;;4977393;28;20023;-76
2022/05/22 12:11:25;;;;;;;3.53;1.95;;;;;;;;;;4977532;28;20122;-76
2022/05/22 12:13:55;;;;;;;2.92;1.58;;;;;;;;;;4976298;28;20395;-76
2022/05/22 12:16:29;;;;;;;4.80;2.10;;;;;;;;;;4977689;28;20082;-77
2022/05/22 12:19:07;;;;;;;6.15;2.80;;;;;;;;;;4976897;28;20384;-77
2022/05/22 12:21:51;;;;;;;3.40;1.30;;;;;;;;;;4977933;28;20034;-77
2022/05/22 12:24:38;;;;;;;3.35;1.50;;;;;;;;;;4977982;28;20027;-76
2022/05/22 12:27:08;;;;;;;4.47;1.55;;;;;;;;;;4978643;28;20022;-77
2022/05/22 12:29:43;;;;;;;3.58;1.40;;;;;;;;;;4978123;28;20023;-76
2022/05/22 12:32:20;;;;;;;4.45;1.10;;;;;;;;;;4976863;28;20526;-78
2022/05/22 12:34:50;;;;;;;5.07;1.50;;;;;;;;;;4977355;28;20027;-78
2022/05/22 12:37:26;;;;;;;5.03;1.70;;;;;;;;;;4979470;28;20543;-78
2022/05/22 12:39:59;;;;;;;3.30;1.38;;;;;;;;;;4978861;28;20360;-78
2022/05/22 12:42:31;;;;;;;4.60;1.60;;;;;;;;;;4977226;28;20062;-78
2022/05/22 12:44:58;;;;;;;3.05;1.55;;;;;;;;;;4976316;28;20395;-78
2022/05/22 12:47:34;;;;;;;3.05;1.42;;;;;;;;;;4977577;28;20027;-78
2022/05/22 12:50:02;;;;;;;6.78;1.67;;;;;;;;;;4977449;28;20153;-78
2022/05/22 12:52:32;;;;;;;5.53;1.70;;;;;;;;;;4977153;28;20105;-78
2022/05/22 12:55:09;;;;;;;1.95;1.42;;;;;;;;;;4977381;28;20181;-78
2022/05/22 12:57:36;;;;;;;3.90;1.63;;;;;;;;;;4976527;28;20022;-79
2022/05/22 13:00:15;;;;;;;3.33;1.40;;;;;;;;;;4975847;28;20114;-79
2022/05/22 13:02:44;;;;;;;3.28;1.40;;;;;;;;;;4977292;28;20022;-78
2022/05/22 13:05:16;;;;;;;4.13;1.88;;;;;;;;;;4975198;28;20053;-78
2022/05/22 13:07:43;;;;;;;3.20;1.70;;;;;;;;;;4977082;28;20026;-78
2022/05/22 13:10:20;;;;;;;4.53;2.15;;;;;;;;;;4976957;28;20387;-78
2022/05/22 13:12:52;;;;;;;4.57;2.05;;;;;;;;;;4976793;28;20420;-78
2022/05/22 13:15:23;;;;;;;7.53;2.80;;;;;;;;;;4976734;28;20488;-79
2022/05/22 13:17:52;;;;;;;3.88;1.80;;;;;;;;;;4975215;28;20071;-78
2022/05/22 13:20:45;;;;;;;6.57;1.90;;;;;;;;;;4976674;28;20074;-79
2022/05/22 13:23:25;;;;;;;4.85;1.70;;;;;;;;;;4972893;28;20130;-78
2022/05/22 13:25:55;;;;;;;3.50;1.20;;;;;;;;;;4976711;28;20379;-79
2022/05/22 13:28:30;;;;;;;5.15;1.38;;;;;;;;;;4975110;28;20019;-79
2022/05/22 13:31:12;;;;;;;3.63;1.48;;;;;;;;;;4976248;28;20038;-79
2022/05/22 13:34:06;;;;;;;6.28;1.70;;;;;;;;;;4974960;28;20026;-78
2022/05/22 13:36:34;;;;;;;5.78;1.52;;;;;;;;;;4953195;28;20031;-78
2022/05/22 13:39:06;;;;;;;5.57;1.50;;;;;;;;;;4976350;28;20387;-78
2022/05/22 13:41:33;;;;;;;5.30;2.00;;;;;;;;;;4976121;28;20435;-78
2022/05/22 13:44:00;;;;;;;6.18;2.10;;;;;;;;;;4976023;28;20023;-78
2022/05/22 13:46:30;;;;;;;7.35;1.50;;;;;;;;;;4976099;28;20027;-78
2022/05/22 13:49:05;;;;;;;7.13;1.30;;;;;;;;;;4974693;28;20026;-77
2022/05/22 13:54:28;;;;;;;7.10;1.70;;;;;;;;;;4976204;28;20033;-75
2022/05/22 13:57:01;;;;;;;4.40;1.60;;;;;;;;;;4975783;28;20055;-76
2022/05/22 13:59:30;;;;;;;3.33;1.33;;;;;;;;;;4975714;28;20077;-76
2022/05/22 14:02:02;;;;;;;3.58;1.23;;;;;;;;;;4975715;28;20383;-77
2022/05/22 14:04:30;;;;;;;4.55;1.40;;;;;;;;;;4975588;28;20050;-77
2022/05/22 14:06:58;;;;;;;5.88;1.67;;;;;;;;;;4975849;28;20077;-77
2022/05/22 14:09:34;;;;;;;4.40;1.38;;;;;;;;;;4975591;28;20510;-77
2022/05/22 14:12:02;;;;;;;5.63;1.42;;;;;;;;;;4975681;28;20073;-77
2022/05/22 14:14:30;;;;;;;4.78;2.05;;;;;;;;;;4975514;28;20072;-77
2022/05/22 14:17:04;;;;;;;6.05;2.05;;;;;;;;;;4975470;28;20333;-77
2022/05/22 14:19:36;;;;;;;5.53;1.50;;;;;;;;;;4975314;28;20030;-77
2022/05/22 14:22:16;;;;;;;5.55;1.40;;;;;;;;;;4975620;28;20027;-77
2022/05/22 14:24:54;;;;;;;7.15;1.73;;;;;;;;;;4974035;28;20030;-76
2022/05/22 14:27:39;;;;;;;5.80;2.05;;;;;;;;;;4974021;28;20114;-77
2022/05/22 14:30:19;;;;;;;2.92;1.20;;;;;;;;;;4975187;28;20039;-77
2022/05/22 14:32:50;;;;;;;4.88;1.60;;;;;;;;;;4973807;28;20083;-77
2022/05/22 14:35:20;;;;;;;6.05;2.10;;;;;;;;;;4975079;28;20443;-77
2022/05/22 14:37:48;;;;;;;6.47;2.30;;;;;;;;;;4975110;28;20484;-77
2022/05/22 14:40:25;;;;;;;4.38;1.85;;;;;;;;;;4975018;28;20019;-78
2022/05/22 14:42:54;;;;;;;7.00;2.15;;;;;;;;;;4973784;28;20029;-77
2022/05/22 14:45:29;;;;;;;5.65;2.05;;;;;;;;;;4974875;28;20098;-79
2022/05/22 14:47:58;;;;;;;4.38;1.52;;;;;;;;;;4973561;28;20026;-77
2022/05/22 14:50:25;;;;;;;8.45;2.22;;;;;;;;;;4974966;28;20027;-78
2022/05/22 14:52:57;;;;;;;5.78;2.20;;;;;;;;;;4974989;28;20027;-78
2022/05/22 14:55:32;;;;;;;5.65;1.70;;;;;;;;;;4973494;28;20106;-78
2022/05/22 14:57:59;;;;;;;5.10;1.95;;;;;;;;;;4974721;28;20043;-78
2022/05/22 15:00:34;;;;;;;4.28;1.25;;;;;;;;;;4974630;28;20026;-78
2022/05/22 15:03:10;;;;;;;3.90;1.20;;;;;;;;;;4973276;28;20030;-78
2022/05/22 15:05:39;;;;;;;3.90;1.52;;;;;;;;;;4973082;28;20054;-78
2022/05/22 15:08:20;;;;;;;3.45;1.20;;;;;;;;;;4974833;28;20027;-78
2022/05/22 15:10:48;;;;;;;3.72;1.30;;;;;;;;;;4974715;28;20033;-78
2022/05/22 15:13:24;;;;;;;3.72;1.40;;;;;;;;;;4974476;28;20027;-78
2022/05/22 15:15:51;;;;;;;3.33;1.30;;;;;;;;;;4974364;28;20015;-78
2022/05/22 15:19:48;;;;;;;2.05;1.00;;;;;;;;;;4974259;28;20030;-77
2022/05/22 15:21:10;;;;;;;6.25;1.55;;;;;;;;;;4973915;28;20086;-77